sensor_id;sensor_type;location;lat;lon;timestamp;noise_LAeq;noise_LA_min;noise_LA_max;noise_LA01;noise_LA95
52872;Laerm;40124;52.198;9.902;2023-10-19T00:00:47;51.17;46.33;64.09;;
52872;Laerm;40124;52.198;9.902;2023-10-19T00:03:17;48.69;44.73;55.57;;
52872;Laerm;40124;52.198;9.902;2023-10-19T00:05:42;59.95;43.99;79.41;;
52872;Laerm;40124;52.198;9.902;2023-10-19T00:08:08;70.48;44.43;90.80;;
52872;Laerm;40124;52.198;9.902;2023-10-19T00:10:47;51.78;42.74;71.34;;
52872;Laerm;40124;52.198;9.902;2023-10-19T00:13:15;44.13;42.03;50.69;;
52872;Laerm;40124;52.198;9.902;2023-10-19T00:15:41;44.03;42.35;50.25;;
52872;Laerm;40124;52.198;9.902;2023-10-19T00:18:17;44.52;42.59;52.09;;
52872;Laerm;40124;52.198;9.902;2023-10-19T00:20:44;44.25;42.35;51.22;;
52872;Laerm;40124;52.198;9.902;2023-10-19T00:23:21;43.75;41.61;52.50;;
52872;Laerm;40124;52.198;9.902;2023-10-19T00:25:54;43.29;41.38;48.96;;
52872;Laerm;40124;52.198;9.902;2023-10-19T00:28:19;67.30;42.16;87.29;;
52872;Laerm;40124;52.198;9.902;2023-10-19T00:30:45;46.70;44.03;53.71;;
52872;Laerm;40124;52.198;9.902;2023-10-19T00:33:13;60.16;43.86;81.37;;
52872;Laerm;40124;52.198;9.902;2023-10-19T00:35:45;60.26;43.77;80.15;;
52872;Laerm;40124;52.198;9.902;2023-10-19T00:38:23;46.92;44.23;56.51;;
52872;Laerm;40124;52.198;9.902;2023-10-19T00:40:52;46.76;44.16;52.73;;
52872;Laerm;40124;52.198;9.902;2023-10-19T00:43:35;45.62;42.88;52.63;;
52872;Laerm;40124;52.198;9.902;2023-10-19T00:46:02;61.26;44.11;79.95;;
52872;Laerm;40124;52.198;9.902;2023-10-19T00:48:29;52.14;48.90;60.03;;
52872;Laerm;40124;52.198;9.902;2023-10-19T00:50:57;51.57;47.83;60.33;;
52872;Laerm;40124;52.198;9.902;2023-10-19T00:53:37;52.05;48.88;62.21;;
52872;Laerm;40124;52.198;9.902;2023-10-19T00:56:02;67.58;47.65;85.56;;
52872;Laerm;40124;52.198;9.902;2023-10-19T00:58:30;52.55;47.55;62.11;;
52872;Laerm;40124;52.198;9.902;2023-10-19T01:00:56;54.66;49.96;63.49;;
52872;Laerm;40124;52.198;9.902;2023-10-19T01:03:24;64.06;51.08;83.03;;
52872;Laerm;40124;52.198;9.902;2023-10-19T01:05:56;65.65;50.52;85.28;;
52872;Laerm;40124;52.198;9.902;2023-10-19T01:08:22;66.12;50.79;85.05;;
52872;Laerm;40124;52.198;9.902;2023-10-19T01:10:56;63.71;51.55;83.22;;
52872;Laerm;40124;52.198;9.902;2023-10-19T01:13:22;53.25;50.09;60.92;;
52872;Laerm;40124;52.198;9.902;2023-10-19T01:15:52;60.08;48.83;79.19;;
52872;Laerm;40124;52.198;9.902;2023-10-19T01:18:17;59.45;48.61;79.24;;
52872;Laerm;40124;52.198;9.902;2023-10-19T01:20:42;51.08;48.07;62.77;;
52872;Laerm;40124;52.198;9.902;2023-10-19T01:23:17;50.36;47.36;58.65;;
52872;Laerm;40124;52.198;9.902;2023-10-19T01:25:50;50.80;47.70;58.87;;
52872;Laerm;40124;52.198;9.902;2023-10-19T01:28:25;64.79;47.76;82.57;;
52872;Laerm;40124;52.198;9.902;2023-10-19T01:30:53;51.97;48.25;60.87;;
52872;Laerm;40124;52.198;9.902;2023-10-19T01:33:19;53.41;50.52;65.23;;
52872;Laerm;40124;52.198;9.902;2023-10-19T01:35:44;61.39;50.85;80.80;;
52872;Laerm;40124;52.198;9.902;2023-10-19T01:38:28;54.48;51.05;63.30;;
52872;Laerm;40124;52.198;9.902;2023-10-19T01:40:57;55.44;51.19;64.32;;
52872;Laerm;40124;52.198;9.902;2023-10-19T01:43:24;56.49;51.14;75.15;;
52872;Laerm;40124;52.198;9.902;2023-10-19T01:45:53;59.85;50.90;79.71;;
52872;Laerm;40124;52.198;9.902;2023-10-19T01:48:21;55.23;51.88;64.39;;
52872;Laerm;40124;52.198;9.902;2023-10-19T01:51:02;57.67;52.12;72.90;;
52872;Laerm;40124;52.198;9.902;2023-10-19T01:53:29;53.08;49.10;60.34;;
52872;Laerm;40124;52.198;9.902;2023-10-19T01:55:55;50.52;47.34;59.08;;
52872;Laerm;40124;52.198;9.902;2023-10-19T01:58:26;60.19;47.76;80.90;;
52872;Laerm;40124;52.198;9.902;2023-10-19T02:00:52;62.01;45.48;77.76;;
52872;Laerm;40124;52.198;9.902;2023-10-19T02:03:20;67.83;46.02;87.50;;
52872;Laerm;40124;52.198;9.902;2023-10-19T02:05:50;58.63;45.17;78.49;;
52872;Laerm;40124;52.198;9.902;2023-10-19T02:08:21;67.29;45.01;86.32;;
52872;Laerm;40124;52.198;9.902;2023-10-19T02:10:50;64.36;44.69;82.25;;
52872;Laerm;40124;52.198;9.902;2023-10-19T02:13:15;67.65;44.11;88.93;;
52872;Laerm;40124;52.198;9.902;2023-10-19T02:15:42;46.89;43.19;60.79;;
52872;Laerm;40124;52.198;9.902;2023-10-19T02:18:07;71.91;43.04;91.33;;
52872;Laerm;40124;52.198;9.902;2023-10-19T02:20:34;69.74;43.90;85.90;;
52872;Laerm;40124;52.198;9.902;2023-10-19T02:22:59;68.58;43.14;87.21;;
52872;Laerm;40124;52.198;9.902;2023-10-19T02:25:28;46.88;42.53;60.91;;
52872;Laerm;40124;52.198;9.902;2023-10-19T02:27:55;61.87;42.71;80.85;;
52872;Laerm;40124;52.198;9.902;2023-10-19T02:30:20;62.74;42.71;80.24;;
52872;Laerm;40124;52.198;9.902;2023-10-19T02:32:46;72.42;44.90;91.53;;
52872;Laerm;40124;52.198;9.902;2023-10-19T02:35:12;61.95;43.14;78.97;;
52872;Laerm;40124;52.198;9.902;2023-10-19T02:37:37;62.72;42.82;82.67;;
52872;Laerm;40124;52.198;9.902;2023-10-19T02:40:03;45.57;42.88;52.20;;
52872;Laerm;40124;52.198;9.902;2023-10-19T02:42:37;61.28;43.19;81.21;;
52872;Laerm;40124;52.198;9.902;2023-10-19T02:45:02;65.03;44.31;81.09;;
52872;Laerm;40124;52.198;9.902;2023-10-19T02:47:30;67.61;45.01;86.32;;
52872;Laerm;40124;52.198;9.902;2023-10-19T02:49:55;66.34;44.69;81.91;;
52872;Laerm;40124;52.198;9.902;2023-10-19T02:52:20;65.33;45.27;82.40;;
52872;Laerm;40124;52.198;9.902;2023-10-19T02:54:47;67.55;45.01;86.82;;
52872;Laerm;40124;52.198;9.902;2023-10-19T02:57:12;67.14;44.51;84.30;;
52872;Laerm;40124;52.198;9.902;2023-10-19T02:59:38;63.63;43.44;80.08;;
52872;Laerm;40124;52.198;9.902;2023-10-19T03:02:04;70.29;43.72;89.66;;
52872;Laerm;40124;52.198;9.902;2023-10-19T03:04:40;67.05;43.81;80.80;;
52872;Laerm;40124;52.198;9.902;2023-10-19T03:07:06;68.66;44.58;83.86;;
52872;Laerm;40124;52.198;9.902;2023-10-19T03:09:38;65.90;44.58;81.28;;
52872;Laerm;40124;52.198;9.902;2023-10-19T03:12:13;65.69;44.65;83.34;;
52872;Laerm;40124;52.198;9.902;2023-10-19T03:14:39;66.87;45.36;83.11;;
52872;Laerm;40124;52.198;9.902;2023-10-19T03:17:06;53.98;43.14;75.55;;
52872;Laerm;40124;52.198;9.902;2023-10-19T03:19:33;66.70;42.93;81.72;;
52872;Laerm;40124;52.198;9.902;2023-10-19T03:21:59;68.17;43.94;84.42;;
52872;Laerm;40124;52.198;9.902;2023-10-19T03:24:30;73.66;45.69;84.24;;
52872;Laerm;40124;52.198;9.902;2023-10-19T03:27:06;69.74;45.20;83.36;;
52872;Laerm;40124;52.198;9.902;2023-10-19T03:29:37;68.22;44.03;82.39;;
52872;Laerm;40124;52.198;9.902;2023-10-19T03:32:03;71.13;45.86;83.93;;
52872;Laerm;40124;52.198;9.902;2023-10-19T03:34:29;69.09;47.08;84.20;;
52872;Laerm;40124;52.198;9.902;2023-10-19T03:36:57;70.77;46.07;83.73;;
52872;Laerm;40124;52.198;9.902;2023-10-19T03:39:27;72.79;48.45;87.45;;
52872;Laerm;40124;52.198;9.902;2023-10-19T03:41:52;74.13;47.18;86.60;;
52872;Laerm;40124;52.198;9.902;2023-10-19T03:44:18;73.44;46.28;84.28;;
52872;Laerm;40124;52.198;9.902;2023-10-19T03:46:50;71.58;45.07;86.98;;
52872;Laerm;40124;52.198;9.902;2023-10-19T03:49:18;71.87;44.65;87.53;;
52872;Laerm;40124;52.198;9.902;2023-10-19T03:51:44;73.98;44.58;91.17;;
52872;Laerm;40124;52.198;9.902;2023-10-19T03:54:45;72.61;44.80;86.05;;
52872;Laerm;40124;52.198;9.902;2023-10-19T03:57:12;70.37;44.11;84.58;;
52872;Laerm;40124;52.198;9.902;2023-10-19T03:59:38;69.97;45.72;83.37;;
52872;Laerm;40124;52.198;9.902;2023-10-19T04:02:03;67.96;44.73;81.61;;
52872;Laerm;40124;52.198;9.902;2023-10-19T04:04:37;75.27;48.95;91.38;;
52872;Laerm;40124;52.198;9.902;2023-10-19T04:07:04;75.09;44.58;91.33;;
52872;Laerm;40124;52.198;9.902;2023-10-19T04:09:36;73.37;47.24;88.47;;
52872;Laerm;40124;52.198;9.902;2023-10-19T04:12:21;69.52;47.61;84.42;;
52872;Laerm;40124;52.198;9.902;2023-10-19T04:14:47;71.89;50.01;83.69;;
52872;Laerm;40124;52.198;9.902;2023-10-19T04:17:13;76.57;50.90;87.28;;
52872;Laerm;40124;52.198;9.902;2023-10-19T04:19:38;72.47;48.32;83.84;;
52872;Laerm;40124;52.198;9.902;2023-10-19T04:22:04;75.17;50.47;90.48;;
52872;Laerm;40124;52.198;9.902;2023-10-19T04:24:29;71.99;45.60;84.43;;
52872;Laerm;40124;52.198;9.902;2023-10-19T04:26:58;72.73;53.51;83.31;;
52872;Laerm;40124;52.198;9.902;2023-10-19T04:29:24;72.14;46.15;83.35;;
52872;Laerm;40124;52.198;9.902;2023-10-19T04:31:52;72.10;49.11;82.94;;
52872;Laerm;40124;52.198;9.902;2023-10-19T04:34:21;72.57;47.16;88.48;;
52872;Laerm;40124;52.198;9.902;2023-10-19T04:36:49;74.57;56.75;85.84;;
52872;Laerm;40124;52.198;9.902;2023-10-19T04:39:14;74.17;51.20;88.53;;
52872;Laerm;40124;52.198;9.902;2023-10-19T04:41:40;73.79;46.62;86.49;;
52872;Laerm;40124;52.198;9.902;2023-10-19T04:44:05;73.11;50.51;83.12;;
52872;Laerm;40124;52.198;9.902;2023-10-19T04:46:33;75.56;52.52;89.52;;
52872;Laerm;40124;52.198;9.902;2023-10-19T04:48:58;75.02;52.62;89.28;;
52872;Laerm;40124;52.198;9.902;2023-10-19T04:51:24;73.07;52.16;87.40;;
52872;Laerm;40124;52.198;9.902;2023-10-19T04:53:49;73.91;50.34;84.16;;
52872;Laerm;40124;52.198;9.902;2023-10-19T04:56:14;69.66;48.23;83.46;;
52872;Laerm;40124;52.198;9.902;2023-10-19T04:58:40;73.64;47.12;88.70;;
52872;Laerm;40124;52.198;9.902;2023-10-19T05:01:05;73.94;50.48;89.44;;
52872;Laerm;40124;52.198;9.902;2023-10-19T05:03:30;72.87;49.43;84.19;;
52872;Laerm;40124;52.198;9.902;2023-10-19T05:05:55;73.89;47.65;87.67;;
52872;Laerm;40124;52.198;9.902;2023-10-19T05:08:24;74.19;49.87;90.07;;
52872;Laerm;40124;52.198;9.902;2023-10-19T05:10:51;71.23;51.23;82.04;;
52872;Laerm;40124;52.198;9.902;2023-10-19T05:13:16;74.17;46.97;88.53;;
52872;Laerm;40124;52.198;9.902;2023-10-19T05:15:41;73.34;52.55;84.09;;
52872;Laerm;40124;52.198;9.902;2023-10-19T05:18:07;75.82;57.13;90.32;;
52872;Laerm;40124;52.198;9.902;2023-10-19T05:20:33;75.41;59.40;89.07;;
52872;Laerm;40124;52.198;9.902;2023-10-19T05:22:58;71.67;58.10;84.87;;
52872;Laerm;40124;52.198;9.902;2023-10-19T05:25:25;73.55;52.04;86.06;;
52872;Laerm;40124;52.198;9.902;2023-10-19T05:27:50;73.56;50.87;83.85;;
52872;Laerm;40124;52.198;9.902;2023-10-19T05:30:15;72.96;46.28;85.73;;
52872;Laerm;40124;52.198;9.902;2023-10-19T05:32:40;74.02;49.70;87.11;;
52872;Laerm;40124;52.198;9.902;2023-10-19T05:35:06;75.04;55.75;89.53;;
52872;Laerm;40124;52.198;9.902;2023-10-19T05:37:32;74.48;54.12;88.76;;
52872;Laerm;40124;52.198;9.902;2023-10-19T05:39:57;76.13;48.10;87.37;;
52872;Laerm;40124;52.198;9.902;2023-10-19T05:42:23;76.17;48.48;88.14;;
52872;Laerm;40124;52.198;9.902;2023-10-19T05:44:48;76.22;53.25;92.56;;
52872;Laerm;40124;52.198;9.902;2023-10-19T05:47:13;75.55;57.84;86.07;;
52872;Laerm;40124;52.198;9.902;2023-10-19T05:49:39;72.58;50.92;84.46;;
52872;Laerm;40124;52.198;9.902;2023-10-19T05:52:04;74.68;57.80;83.83;;
52872;Laerm;40124;52.198;9.902;2023-10-19T05:54:29;72.23;50.28;85.60;;
52872;Laerm;40124;52.198;9.902;2023-10-19T05:56:54;74.31;56.23;89.64;;
52872;Laerm;40124;52.198;9.902;2023-10-19T05:59:19;74.39;53.27;88.85;;
52872;Laerm;40124;52.198;9.902;2023-10-19T06:01:45;71.66;49.89;85.33;;
52872;Laerm;40124;52.198;9.902;2023-10-19T06:04:13;71.32;52.86;84.34;;
52872;Laerm;40124;52.198;9.902;2023-10-19T06:06:38;73.30;55.06;85.28;;
52872;Laerm;40124;52.198;9.902;2023-10-19T06:09:04;73.05;47.30;86.19;;
52872;Laerm;40124;52.198;9.902;2023-10-19T06:11:30;72.09;48.28;85.12;;
52872;Laerm;40124;52.198;9.902;2023-10-19T06:13:57;71.46;50.45;84.87;;
52872;Laerm;40124;52.198;9.902;2023-10-19T06:16:22;74.25;54.28;88.71;;
52872;Laerm;40124;52.198;9.902;2023-10-19T06:18:47;73.68;50.01;88.82;;
52872;Laerm;40124;52.198;9.902;2023-10-19T06:21:12;71.65;51.26;83.09;;
52872;Laerm;40124;52.198;9.902;2023-10-19T06:23:42;74.03;52.15;87.82;;
52872;Laerm;40124;52.198;9.902;2023-10-19T06:26:10;74.51;49.15;87.54;;
52872;Laerm;40124;52.198;9.902;2023-10-19T06:28:39;73.32;48.05;89.76;;
52872;Laerm;40124;52.198;9.902;2023-10-19T06:31:05;72.86;48.43;86.66;;
52872;Laerm;40124;52.198;9.902;2023-10-19T06:33:31;74.50;51.99;89.70;;
52872;Laerm;40124;52.198;9.902;2023-10-19T06:35:58;75.22;51.03;89.29;;
52872;Laerm;40124;52.198;9.902;2023-10-19T06:38:24;70.94;50.37;82.98;;
52872;Laerm;40124;52.198;9.902;2023-10-19T06:40:49;70.11;50.78;83.03;;
52872;Laerm;40124;52.198;9.902;2023-10-19T06:43:14;72.44;47.38;86.84;;
52872;Laerm;40124;52.198;9.902;2023-10-19T06:45:39;70.40;47.22;81.58;;
52872;Laerm;40124;52.198;9.902;2023-10-19T06:48:05;74.85;50.24;88.75;;
52872;Laerm;40124;52.198;9.902;2023-10-19T06:50:31;71.06;48.36;82.82;;
52872;Laerm;40124;52.198;9.902;2023-10-19T06:52:57;75.62;51.22;92.53;;
52872;Laerm;40124;52.198;9.902;2023-10-19T06:55:22;71.94;52.37;88.38;;
52872;Laerm;40124;52.198;9.902;2023-10-19T06:57:50;72.87;48.88;84.44;;
52872;Laerm;40124;52.198;9.902;2023-10-19T07:00:17;72.02;52.89;84.60;;
52872;Laerm;40124;52.198;9.902;2023-10-19T07:02:46;71.29;48.31;87.55;;
52872;Laerm;40124;52.198;9.902;2023-10-19T07:05:12;70.76;48.57;85.34;;
52872;Laerm;40124;52.198;9.902;2023-10-19T07:07:42;70.75;49.79;84.67;;
52872;Laerm;40124;52.198;9.902;2023-10-19T07:10:08;74.71;52.09;91.05;;
52872;Laerm;40124;52.198;9.902;2023-10-19T07:12:34;70.10;49.55;83.89;;
52872;Laerm;40124;52.198;9.902;2023-10-19T07:14:59;72.55;50.56;89.25;;
52872;Laerm;40124;52.198;9.902;2023-10-19T07:17:26;68.45;47.26;82.17;;
52872;Laerm;40124;52.198;9.902;2023-10-19T07:19:52;70.44;49.11;85.26;;
52872;Laerm;40124;52.198;9.902;2023-10-19T07:22:17;70.25;49.70;83.71;;
52872;Laerm;40124;52.198;9.902;2023-10-19T07:24:42;70.09;44.39;85.79;;
52872;Laerm;40124;52.198;9.902;2023-10-19T07:27:07;69.58;44.87;85.96;;
52872;Laerm;40124;52.198;9.902;2023-10-19T07:29:42;70.37;46.62;87.05;;
52872;Laerm;40124;52.198;9.902;2023-10-19T07:32:08;71.20;48.60;87.35;;
52872;Laerm;40124;52.198;9.902;2023-10-19T07:34:36;70.21;45.37;87.72;;
52872;Laerm;40124;52.198;9.902;2023-10-19T07:37:01;71.34;49.62;87.46;;
52872;Laerm;40124;52.198;9.902;2023-10-19T07:39:26;69.35;46.95;87.27;;
52872;Laerm;40124;52.198;9.902;2023-10-19T07:41:54;70.62;49.72;88.19;;
52872;Laerm;40124;52.198;9.902;2023-10-19T07:44:20;71.48;47.81;86.41;;
52872;Laerm;40124;52.198;9.902;2023-10-19T07:46:45;71.49;51.15;84.93;;
52872;Laerm;40124;52.198;9.902;2023-10-19T07:49:10;71.23;49.32;85.86;;
52872;Laerm;40124;52.198;9.902;2023-10-19T07:51:39;69.79;48.85;85.29;;
52872;Laerm;40124;52.198;9.902;2023-10-19T07:54:06;74.38;45.57;90.09;;
52872;Laerm;40124;52.198;9.902;2023-10-19T07:56:31;70.78;45.67;88.83;;
52872;Laerm;40124;52.198;9.902;2023-10-19T07:58:57;70.40;50.28;85.41;;
52872;Laerm;40124;52.198;9.902;2023-10-19T08:01:23;69.15;45.11;80.35;;
52872;Laerm;40124;52.198;9.902;2023-10-19T08:03:48;73.23;50.76;89.12;;
52872;Laerm;40124;52.198;9.902;2023-10-19T08:06:13;71.10;50.16;88.72;;
52872;Laerm;40124;52.198;9.902;2023-10-19T08:08:39;69.73;50.15;84.05;;
52872;Laerm;40124;52.198;9.902;2023-10-19T08:11:04;74.63;52.49;94.43;;
52872;Laerm;40124;52.198;9.902;2023-10-19T08:13:29;69.67;49.73;84.24;;
52872;Laerm;40124;52.198;9.902;2023-10-19T08:15:54;70.46;49.49;87.45;;
52872;Laerm;40124;52.198;9.902;2023-10-19T08:18:20;71.12;49.96;86.41;;
52872;Laerm;40124;52.198;9.902;2023-10-19T08:20:45;68.26;49.58;80.46;;
52872;Laerm;40124;52.198;9.902;2023-10-19T08:23:11;70.73;46.93;87.48;;
52872;Laerm;40124;52.198;9.902;2023-10-19T08:25:38;66.99;47.16;80.73;;
52872;Laerm;40124;52.198;9.902;2023-10-19T08:28:04;64.71;46.13;79.61;;
52872;Laerm;40124;52.198;9.902;2023-10-19T08:30:29;68.01;49.03;78.60;;
52872;Laerm;40124;52.198;9.902;2023-10-19T08:32:55;68.96;48.90;87.49;;
52872;Laerm;40124;52.198;9.902;2023-10-19T08:35:23;70.69;46.57;89.61;;
52872;Laerm;40124;52.198;9.902;2023-10-19T08:37:55;69.68;45.60;86.33;;
52872;Laerm;40124;52.198;9.902;2023-10-19T08:40:22;72.23;46.95;87.02;;
52872;Laerm;40124;52.198;9.902;2023-10-19T08:42:49;72.96;50.16;89.26;;
52872;Laerm;40124;52.198;9.902;2023-10-19T08:45:14;72.01;50.78;87.04;;
52872;Laerm;40124;52.198;9.902;2023-10-19T08:47:54;70.13;50.07;86.46;;
52872;Laerm;40124;52.198;9.902;2023-10-19T08:50:21;69.02;49.50;83.23;;
52872;Laerm;40124;52.198;9.902;2023-10-19T08:52:48;70.78;48.70;87.35;;
52872;Laerm;40124;52.198;9.902;2023-10-19T08:55:15;69.59;47.26;84.92;;
52872;Laerm;40124;52.198;9.902;2023-10-19T08:57:40;70.22;46.62;86.85;;
52872;Laerm;40124;52.198;9.902;2023-10-19T09:00:06;65.22;44.03;81.22;;
52872;Laerm;40124;52.198;9.902;2023-10-19T09:02:31;73.88;50.96;88.43;;
52872;Laerm;40124;52.198;9.902;2023-10-19T09:04:58;67.62;44.80;81.08;;
52872;Laerm;40124;52.198;9.902;2023-10-19T09:07:24;67.92;47.02;80.68;;
52872;Laerm;40124;52.198;9.902;2023-10-19T09:09:51;70.51;48.81;84.79;;
52872;Laerm;40124;52.198;9.902;2023-10-19T09:12:17;68.95;45.69;84.59;;
52872;Laerm;40124;52.198;9.902;2023-10-19T09:14:44;71.07;46.66;85.43;;
52872;Laerm;40124;52.198;9.902;2023-10-19T09:17:10;68.61;50.28;82.18;;
52872;Laerm;40124;52.198;9.902;2023-10-19T09:19:37;70.09;48.85;85.89;;
52872;Laerm;40124;52.198;9.902;2023-10-19T09:22:02;71.88;48.20;87.10;;
52872;Laerm;40124;52.198;9.902;2023-10-19T09:24:35;69.96;49.20;83.50;;
52872;Laerm;40124;52.198;9.902;2023-10-19T09:27:02;67.32;47.76;83.69;;
52872;Laerm;40124;52.198;9.902;2023-10-19T09:29:27;68.67;46.38;83.78;;
52872;Laerm;40124;52.198;9.902;2023-10-19T09:31:52;70.39;48.05;84.86;;
52872;Laerm;40124;52.198;9.902;2023-10-19T09:34:19;66.53;45.01;78.65;;
52872;Laerm;40124;52.198;9.902;2023-10-19T09:36:47;68.65;48.20;82.55;;
52872;Laerm;40124;52.198;9.902;2023-10-19T09:39:12;67.65;44.90;81.38;;
52872;Laerm;40124;52.198;9.902;2023-10-19T09:41:37;70.28;52.28;86.22;;
52872;Laerm;40124;52.198;9.902;2023-10-19T09:44:04;72.18;48.61;88.34;;
52872;Laerm;40124;52.198;9.902;2023-10-19T09:46:34;66.98;45.69;80.55;;
52872;Laerm;40124;52.198;9.902;2023-10-19T09:49:03;68.21;43.54;85.73;;
52872;Laerm;40124;52.198;9.902;2023-10-19T09:51:29;68.65;46.05;80.55;;
52872;Laerm;40124;52.198;9.902;2023-10-19T09:54:00;70.18;48.02;88.66;;
52872;Laerm;40124;52.198;9.902;2023-10-19T09:56:41;68.85;50.24;82.45;;
52872;Laerm;40124;52.198;9.902;2023-10-19T09:59:11;70.37;49.50;90.93;;
52872;Laerm;40124;52.198;9.902;2023-10-19T10:02:03;71.96;45.86;87.65;;
52872;Laerm;40124;52.198;9.902;2023-10-19T10:04:32;68.13;47.46;81.25;;
52872;Laerm;40124;52.198;9.902;2023-10-19T10:06:57;71.47;45.60;84.51;;
52872;Laerm;40124;52.198;9.902;2023-10-19T10:09:25;70.58;52.29;85.84;;
52872;Laerm;40124;52.198;9.902;2023-10-19T10:11:53;71.68;50.73;84.99;;
52872;Laerm;40124;52.198;9.902;2023-10-19T10:14:22;67.65;49.94;81.75;;
52872;Laerm;40124;52.198;9.902;2023-10-19T10:16:51;68.82;45.17;80.31;;
52872;Laerm;40124;52.198;9.902;2023-10-19T10:19:24;70.00;46.15;83.01;;
52872;Laerm;40124;52.198;9.902;2023-10-19T10:22:08;72.92;45.45;87.26;;
52872;Laerm;40124;52.198;9.902;2023-10-19T10:24:41;68.17;46.95;78.96;;
52872;Laerm;40124;52.198;9.902;2023-10-19T10:27:06;71.10;49.47;83.20;;
52872;Laerm;40124;52.198;9.902;2023-10-19T10:29:31;74.15;52.91;90.64;;
52872;Laerm;40124;52.198;9.902;2023-10-19T10:31:56;70.58;45.14;85.32;;
52872;Laerm;40124;52.198;9.902;2023-10-19T10:37:07;69.88;49.74;82.08;;
52872;Laerm;40124;52.198;9.902;2023-10-19T10:39:33;74.12;49.20;86.00;;
52872;Laerm;40124;52.198;9.902;2023-10-19T10:42:01;72.40;48.70;85.27;;
52872;Laerm;40124;52.198;9.902;2023-10-19T10:44:47;72.20;47.42;85.30;;
52872;Laerm;40124;52.198;9.902;2023-10-19T10:47:16;72.98;51.58;88.71;;
52872;Laerm;40124;52.198;9.902;2023-10-19T10:52:32;70.32;48.67;80.65;;
52872;Laerm;40124;52.198;9.902;2023-10-19T10:54:57;71.34;49.98;86.63;;
52872;Laerm;40124;52.198;9.902;2023-10-19T10:57:23;70.54;48.69;82.35;;
52872;Laerm;40124;52.198;9.902;2023-10-19T11:00:00;71.90;44.69;89.35;;
52872;Laerm;40124;52.198;9.902;2023-10-19T11:02:25;72.92;49.62;86.81;;
52872;Laerm;40124;52.198;9.902;2023-10-19T11:04:50;71.61;48.98;85.51;;
52872;Laerm;40124;52.198;9.902;2023-10-19T11:07:19;72.31;49.11;88.41;;
52872;Laerm;40124;52.198;9.902;2023-10-19T11:09:45;71.57;48.90;90.33;;
52872;Laerm;40124;52.198;9.902;2023-10-19T11:12:11;72.06;50.85;86.44;;
52872;Laerm;40124;52.198;9.902;2023-10-19T11:14:36;71.63;46.82;87.30;;
52872;Laerm;40124;52.198;9.902;2023-10-19T11:17:11;71.35;48.28;83.56;;
52872;Laerm;40124;52.198;9.902;2023-10-19T11:19:38;75.30;50.04;90.02;;
52872;Laerm;40124;52.198;9.902;2023-10-19T11:22:04;73.94;47.02;85.74;;
52872;Laerm;40124;52.198;9.902;2023-10-19T11:24:34;73.94;44.03;87.68;;
52872;Laerm;40124;52.198;9.902;2023-10-19T11:27:04;73.13;46.43;89.34;;
52872;Laerm;40124;52.198;9.902;2023-10-19T11:29:30;69.27;45.54;79.91;;
52872;Laerm;40124;52.198;9.902;2023-10-19T11:31:58;69.18;46.71;81.73;;
52872;Laerm;40124;52.198;9.902;2023-10-19T11:34:24;73.88;47.76;92.92;;
52872;Laerm;40124;52.198;9.902;2023-10-19T11:36:53;73.16;52.45;89.19;;
52872;Laerm;40124;52.198;9.902;2023-10-19T11:39:21;71.67;46.95;84.61;;
52872;Laerm;40124;52.198;9.902;2023-10-19T11:41:48;73.17;50.44;85.36;;
52872;Laerm;40124;52.198;9.902;2023-10-19T11:44:13;70.39;46.43;81.30;;
52872;Laerm;40124;52.198;9.902;2023-10-19T11:46:38;71.22;44.83;83.69;;
52872;Laerm;40124;52.198;9.902;2023-10-19T11:49:03;71.13;44.97;86.33;;
52872;Laerm;40124;52.198;9.902;2023-10-19T11:51:29;72.63;48.05;84.95;;
52872;Laerm;40124;52.198;9.902;2023-10-19T11:53:56;73.40;49.34;89.80;;
52872;Laerm;40124;52.198;9.902;2023-10-19T11:56:21;70.74;43.94;86.32;;
52872;Laerm;40124;52.198;9.902;2023-10-19T11:58:46;69.12;44.23;78.91;;
52872;Laerm;40124;52.198;9.902;2023-10-19T12:01:12;71.46;47.02;83.98;;
52872;Laerm;40124;52.198;9.902;2023-10-19T12:03:40;73.31;46.88;86.25;;
52872;Laerm;40124;52.198;9.902;2023-10-19T12:06:06;70.28;44.76;86.71;;
52872;Laerm;40124;52.198;9.902;2023-10-19T12:08:32;70.51;44.80;84.94;;
52872;Laerm;40124;52.198;9.902;2023-10-19T12:10:58;72.23;45.20;86.16;;
52872;Laerm;40124;52.198;9.902;2023-10-19T12:13:23;71.66;46.10;82.84;;
52872;Laerm;40124;52.198;9.902;2023-10-19T12:15:49;74.39;50.65;88.82;;
52872;Laerm;40124;52.198;9.902;2023-10-19T12:18:17;70.50;51.03;82.30;;
52872;Laerm;40124;52.198;9.902;2023-10-19T12:20:43;72.06;53.16;82.12;;
52872;Laerm;40124;52.198;9.902;2023-10-19T12:23:10;71.23;49.16;83.82;;
52872;Laerm;40124;52.198;9.902;2023-10-19T12:25:35;72.33;52.57;87.81;;
52872;Laerm;40124;52.198;9.902;2023-10-19T12:28:02;74.70;53.24;91.59;;
52872;Laerm;40124;52.198;9.902;2023-10-19T12:30:29;71.25;44.76;85.25;;
52872;Laerm;40124;52.198;9.902;2023-10-19T12:32:59;75.01;50.38;87.22;;
52872;Laerm;40124;52.198;9.902;2023-10-19T12:35:24;72.91;49.94;86.02;;
52872;Laerm;40124;52.198;9.902;2023-10-19T12:38:01;72.28;45.04;86.21;;
52872;Laerm;40124;52.198;9.902;2023-10-19T12:40:32;73.72;50.86;85.95;;
52872;Laerm;40124;52.198;9.902;2023-10-19T12:43:00;72.32;48.98;86.33;;
52872;Laerm;40124;52.198;9.902;2023-10-19T12:45:28;71.70;52.38;81.08;;
52872;Laerm;40124;52.198;9.902;2023-10-19T12:47:53;71.00;46.40;83.20;;
52872;Laerm;40124;52.198;9.902;2023-10-19T12:50:19;72.07;48.92;84.92;;
52872;Laerm;40124;52.198;9.902;2023-10-19T12:52:50;72.51;49.82;87.32;;
52872;Laerm;40124;52.198;9.902;2023-10-19T12:55:16;72.41;44.76;86.74;;
52872;Laerm;40124;52.198;9.902;2023-10-19T12:57:41;73.24;51.14;85.82;;
52872;Laerm;40124;52.198;9.902;2023-10-19T13:00:06;71.61;45.14;81.81;;
52872;Laerm;40124;52.198;9.902;2023-10-19T13:02:48;69.68;44.83;85.30;;
52872;Laerm;40124;52.198;9.902;2023-10-19T13:05:14;71.51;48.77;84.34;;
52872;Laerm;40124;52.198;9.902;2023-10-19T13:07:43;72.76;54.41;84.04;;
52872;Laerm;40124;52.198;9.902;2023-10-19T13:10:08;70.05;46.91;82.48;;
52872;Laerm;40124;52.198;9.902;2023-10-19T13:12:33;71.02;49.67;79.95;;
52872;Laerm;40124;52.198;9.902;2023-10-19T13:14:58;71.28;48.66;80.33;;
52872;Laerm;40124;52.198;9.902;2023-10-19T13:17:24;73.00;55.23;86.28;;
52872;Laerm;40124;52.198;9.902;2023-10-19T13:19:49;71.68;52.36;85.39;;
52872;Laerm;40124;52.198;9.902;2023-10-19T13:22:19;71.93;52.09;82.65;;
52872;Laerm;40124;52.198;9.902;2023-10-19T13:24:46;72.31;50.68;86.65;;
52872;Laerm;40124;52.198;9.902;2023-10-19T13:27:11;70.23;52.17;79.53;;
52872;Laerm;40124;52.198;9.902;2023-10-19T13:29:36;71.89;51.16;87.51;;
52872;Laerm;40124;52.198;9.902;2023-10-19T13:32:04;70.64;47.57;81.32;;
52872;Laerm;40124;52.198;9.902;2023-10-19T13:34:30;72.49;45.27;85.78;;
52872;Laerm;40124;52.198;9.902;2023-10-19T13:36:55;68.02;45.63;80.12;;
52872;Laerm;40124;52.198;9.902;2023-10-19T13:39:21;69.81;44.65;81.91;;
52872;Laerm;40124;52.198;9.902;2023-10-19T13:41:50;71.34;47.18;82.69;;
52872;Laerm;40124;52.198;9.902;2023-10-19T13:44:15;73.01;51.25;88.76;;
52872;Laerm;40124;52.198;9.902;2023-10-19T13:46:43;69.90;49.34;80.76;;
52872;Laerm;40124;52.198;9.902;2023-10-19T13:49:10;73.30;51.32;87.67;;
52872;Laerm;40124;52.198;9.902;2023-10-19T13:51:35;74.25;52.30;92.34;;